Time;durP1;ratioP1;P1;durP2;ratioP2;P2;SDS_P1;SDS_P2;PMS_P1;PMS_P2;Temp;Humidity;BMP_temperature;BMP_pressure;BME280_temperature;BME280_humidity;BME280_pressure;Samples;Min_cycle;Max_cycle;Signal;HPM_P1;HPM_P2
2020/12/14 00:02:24;;;;;;;8.13;7.30;;;4.20;99.90;;;;;;4913942;29;20197;-67
2020/12/14 00:04:50;;;;;;;7.47;6.73;;;4.20;99.90;;;;;;4912895;29;20438;-67
2020/12/14 00:07:15;;;;;;;7.97;7.17;;;4.20;99.90;;;;;;4914263;29;20991;-66
2020/12/14 00:09:41;;;;;;;7.47;6.50;;;4.10;99.90;;;;;;4913425;29;20264;-66
2020/12/14 00:12:06;;;;;;;7.37;6.67;;;4.10;99.90;;;;;;4914264;29;20188;-66
2020/12/14 00:14:32;;;;;;;9.77;8.17;;;4.00;99.90;;;;;;4913853;29;20314;-66
2020/12/14 00:16:57;;;;;;;8.77;7.87;;;4.00;99.90;;;;;;4913006;29;20558;-66
2020/12/14 00:19:23;;;;;;;9.33;8.43;;;4.10;99.90;;;;;;4913704;29;20186;-66
2020/12/14 00:21:53;;;;;;;10.80;8.27;;;4.10;99.90;;;;;;4914571;29;20170;-67
2020/12/14 00:24:19;;;;;;;9.63;7.53;;;4.00;99.90;;;;;;4917969;29;20655;-67
2020/12/14 00:26:45;;;;;;;8.90;8.10;;;4.00;99.90;;;;;;4917513;29;20569;-67
2020/12/14 00:29:10;;;;;;;8.73;7.83;;;4.00;99.90;;;;;;4916810;29;20541;-66
2020/12/14 00:31:36;;;;;;;9.00;8.10;;;4.00;99.90;;;;;;4917517;29;20194;-66
2020/12/14 00:34:01;;;;;;;12.40;9.30;;;4.00;99.90;;;;;;4917553;29;20177;-66
2020/12/14 00:36:27;;;;;;;9.40;8.33;;;4.00;99.90;;;;;;4917360;29;20609;-66
2020/12/14 00:38:53;;;;;;;9.40;8.40;;;3.90;99.90;;;;;;4916719;29;20182;-67
2020/12/14 00:41:20;;;;;;;9.57;8.13;;;3.90;99.90;;;;;;4917717;29;20668;-66
2020/12/14 00:43:48;;;;;;;10.93;9.07;;;3.90;99.90;;;;;;4917235;29;20182;-66
2020/12/14 00:46:17;;;;;;;10.60;8.83;;;3.90;99.90;;;;;;4917356;29;20476;-66
2020/12/14 00:48:43;;;;;;;10.47;9.30;;;3.90;99.90;;;;;;4916616;29;20470;-67
2020/12/14 00:51:10;;;;;;;9.70;8.63;;;3.90;99.90;;;;;;4917090;29;20434;-66
2020/12/14 00:53:36;;;;;;;8.90;7.53;;;3.90;99.90;;;;;;4917459;29;20438;-66
2020/12/14 00:56:06;;;;;;;7.70;6.70;;;3.90;99.90;;;;;;4916523;29;20990;-66
2020/12/14 00:58:31;;;;;;;7.97;7.27;;;3.90;99.90;;;;;;4916628;29;20462;-66
2020/12/14 01:00:58;;;;;;;9.50;8.27;;;3.80;99.90;;;;;;4917375;29;20457;-67
2020/12/14 01:03:24;;;;;;;9.63;8.63;;;3.80;99.90;;;;;;4917239;29;20224;-67
2020/12/14 01:05:53;;;;;;;8.90;7.97;;;3.80;99.90;;;;;;4914438;29;20820;-66
2020/12/14 01:08:21;;;;;;;9.30;7.63;;;3.70;99.90;;;;;;4915474;29;20951;-66
2020/12/14 01:10:47;;;;;;;9.53;7.70;;;3.60;99.90;;;;;;4917019;29;20438;-66
2020/12/14 01:13:13;;;;;;;8.83;7.30;;;3.70;99.90;;;;;;4916743;29;20442;-66
2020/12/14 01:15:38;;;;;;;8.10;7.40;;;3.60;99.90;;;;;;4916046;29;20470;-66
2020/12/14 01:18:04;;;;;;;7.70;7.00;;;3.60;99.90;;;;;;4914868;29;20199;-67
2020/12/14 01:20:29;;;;;;;9.40;7.97;;;3.50;99.90;;;;;;4916605;29;20550;-67
2020/12/14 01:22:55;;;;;;;7.67;6.97;;;3.50;99.90;;;;;;4916347;29;20544;-66
2020/12/14 01:25:20;;;;;;;8.23;7.43;;;3.40;99.90;;;;;;4916445;29;20183;-66
2020/12/14 01:27:46;;;;;;;9.10;7.73;;;3.40;99.90;;;;;;4915720;29;20233;-66
2020/12/14 01:30:11;;;;;;;10.27;7.90;;;3.30;99.90;;;;;;4916132;29;20190;-66
2020/12/14 01:32:37;;;;;;;8.33;7.43;;;3.30;99.90;;;;;;4914791;29;20218;-66
2020/12/14 01:35:03;;;;;;;8.73;6.50;;;3.20;99.90;;;;;;4916734;29;20194;-66
2020/12/14 01:37:29;;;;;;;9.33;8.30;;;3.20;99.90;;;;;;4914382;29;20237;-67
2020/12/14 01:39:54;;;;;;;10.07;7.60;;;3.10;99.90;;;;;;4915605;29;20880;-66
2020/12/14 01:42:22;;;;;;;8.70;7.80;;;3.10;99.90;;;;;;4916645;29;20652;-66
2020/12/14 01:44:51;;;;;;;9.00;8.10;;;3.20;99.90;;;;;;4916194;29;20186;-67
2020/12/14 01:47:35;;;;;;;8.57;7.67;;;3.20;99.90;;;;;;4915458;29;20549;-65
2020/12/14 01:50:01;;;;;;;8.47;7.50;;;3.30;99.90;;;;;;4916097;29;20564;-66
2020/12/14 01:52:27;;;;;;;8.83;6.70;;;3.30;99.90;;;;;;4916402;29;20456;-65
2020/12/14 01:54:53;;;;;;;7.83;6.90;;;3.30;99.90;;;;;;4915598;29;20541;-66
2020/12/14 01:57:23;;;;;;;8.57;6.70;;;3.30;99.90;;;;;;4916063;29;20221;-65
2020/12/14 01:59:50;;;;;;;7.50;5.80;;;3.30;99.90;;;;;;4915570;29;20438;-65
2020/12/14 02:02:15;;;;;;;8.47;7.67;;;3.40;99.90;;;;;;4916223;29;20438;-65
2020/12/14 02:04:41;;;;;;;7.40;6.40;;;3.40;99.90;;;;;;4915814;29;20504;-66
2020/12/14 02:07:06;;;;;;;8.10;7.30;;;3.40;99.90;;;;;;4916099;29;20269;-66
2020/12/14 02:09:32;;;;;;;8.30;7.40;;;3.40;99.90;;;;;;4915111;29;20318;-66
2020/12/14 02:11:58;;;;;;;9.53;8.30;;;3.40;99.90;;;;;;4915999;29;20859;-65
2020/12/14 02:14:23;;;;;;;8.57;7.77;;;3.30;99.90;;;;;;4915581;29;20631;-66
2020/12/14 02:16:49;;;;;;;8.90;7.97;;;3.30;99.90;;;;;;4915937;29;20217;-66
2020/12/14 02:19:14;;;;;;;10.27;8.60;;;3.20;99.90;;;;;;4915332;29;20178;-66
2020/12/14 02:21:40;;;;;;;9.97;8.30;;;3.30;99.90;;;;;;4915319;29;20206;-66
2020/12/14 02:24:18;;;;;;;8.73;7.13;;;3.30;99.90;;;;;;4916021;29;20257;-66
2020/12/14 02:26:53;;;;;;;8.77;7.80;;;3.40;99.90;;;;;;4915358;29;20214;-67
2020/12/14 02:29:19;;;;;;;8.30;7.50;;;3.40;99.90;;;;;;4914872;29;20608;-66
2020/12/14 02:31:45;;;;;;;8.60;7.37;;;3.40;99.90;;;;;;4915543;29;20449;-65
2020/12/14 02:34:11;;;;;;;10.10;8.10;;;3.40;99.90;;;;;;4914223;29;20446;-66
2020/12/14 02:36:37;;;;;;;8.10;7.07;;;3.30;99.90;;;;;;4914767;29;20493;-67
2020/12/14 02:39:04;;;;;;;8.17;7.13;;;3.30;99.90;;;;;;4914679;29;20189;-66
2020/12/14 02:41:29;;;;;;;12.80;8.03;;;3.30;99.90;;;;;;4915131;29;20521;-67
2020/12/14 02:43:55;;;;;;;7.83;7.03;;;3.30;99.90;;;;;;4914816;29;20542;-66
2020/12/14 02:46:20;;;;;;;8.57;6.80;;;3.30;99.90;;;;;;4914667;29;20273;-66
2020/12/14 02:48:46;;;;;;;10.10;8.00;;;3.30;99.90;;;;;;4914436;29;20266;-67
2020/12/14 02:51:16;;;;;;;8.40;7.60;;;3.30;99.90;;;;;;4915026;29;20531;-67
2020/12/14 02:53:41;;;;;;;7.33;6.57;;;3.40;99.90;;;;;;4914951;29;20535;-67
2020/12/14 02:56:07;;;;;;;8.97;6.77;;;3.40;99.90;;;;;;4914199;29;20498;-66
2020/12/14 02:58:32;;;;;;;7.57;6.80;;;3.40;99.90;;;;;;4915021;29;20222;-67
2020/12/14 03:00:59;;;;;;;7.80;6.60;;;3.30;99.90;;;;;;4914112;29;20250;-67
2020/12/14 03:03:24;;;;;;;9.07;7.37;;;3.30;99.90;;;;;;4915360;29;20192;-67
2020/12/14 03:05:50;;;;;;;7.17;6.13;;;3.20;99.90;;;;;;4914376;29;21012;-67
2020/12/14 03:08:15;;;;;;;8.17;7.37;;;3.20;99.90;;;;;;4914907;29;20278;-67
2020/12/14 03:10:41;;;;;;;8.90;7.77;;;3.20;99.90;;;;;;4908558;29;20206;-66
2020/12/14 03:13:06;;;;;;;8.00;6.97;;;3.20;99.90;;;;;;4915127;29;20221;-67
2020/12/14 03:15:32;;;;;;;8.93;7.17;;;3.20;99.90;;;;;;4914522;29;20186;-67
2020/12/14 03:17:57;;;;;;;10.63;7.30;;;3.20;99.90;;;;;;4914648;29;20220;-66
2020/12/14 03:20:23;;;;;;;9.47;7.47;;;3.20;99.90;;;;;;4912658;29;20198;-67
2020/12/14 03:22:48;;;;;;;8.53;6.87;;;3.30;99.90;;;;;;4914635;29;20549;-67
2020/12/14 03:25:14;;;;;;;7.83;7.03;;;3.30;99.90;;;;;;4914427;29;20178;-67
2020/12/14 03:27:39;;;;;;;7.63;6.43;;;3.30;99.90;;;;;;4913979;29;20210;-67
2020/12/14 03:30:05;;;;;;;10.87;8.87;;;3.30;99.90;;;;;;4914107;29;20193;-67
2020/12/14 03:32:30;;;;;;;8.37;6.60;;;3.20;99.90;;;;;;4914136;29;20193;-67
2020/12/14 03:34:56;;;;;;;7.90;6.33;;;3.10;99.90;;;;;;4914180;29;20196;-67
2020/12/14 03:37:24;;;;;;;10.10;7.40;;;3.10;99.90;;;;;;4914426;29;20240;-67
2020/12/14 03:39:50;;;;;;;10.50;7.60;;;3.10;99.90;;;;;;4913900;29;20182;-67
2020/12/14 03:42:16;;;;;;;9.40;7.93;;;3.10;99.90;;;;;;4914446;29;20525;-66
2020/12/14 03:44:41;;;;;;;10.40;7.90;;;3.10;99.90;;;;;;4914103;29;20568;-67
2020/12/14 03:47:07;;;;;;;7.83;7.03;;;3.10;99.90;;;;;;4914476;29;20234;-67
2020/12/14 03:49:33;;;;;;;7.40;6.33;;;3.10;99.90;;;;;;4913937;29;20212;-67
2020/12/14 03:51:58;;;;;;;8.77;7.87;;;3.10;99.90;;;;;;4913912;29;20474;-66
2020/12/14 03:54:24;;;;;;;7.40;6.43;;;3.10;99.90;;;;;;4913758;29;20646;-67
2020/12/14 03:56:49;;;;;;;7.70;6.90;;;3.00;99.90;;;;;;4913367;29;20226;-67
2020/12/14 03:59:15;;;;;;;7.63;6.50;;;3.00;99.90;;;;;;4912506;29;20178;-67
2020/12/14 04:01:40;;;;;;;7.03;6.33;;;3.00;99.90;;;;;;4914324;29;20182;-67
2020/12/14 04:04:06;;;;;;;7.07;6.47;;;3.00;99.90;;;;;;4913321;29;20182;-67
2020/12/14 04:06:32;;;;;;;9.63;7.23;;;2.90;99.90;;;;;;4913961;29;20289;-67
2020/12/14 04:08:57;;;;;;;9.63;7.13;;;2.90;99.90;;;;;;4913575;29;20648;-67
2020/12/14 04:11:23;;;;;;;9.47;7.10;;;2.80;99.90;;;;;;4914470;29;20192;-67
2020/12/14 04:13:48;;;;;;;8.10;6.53;;;2.80;99.90;;;;;;4914186;29;20190;-67
2020/12/14 04:16:14;;;;;;;11.20;7.17;;;2.80;99.90;;;;;;4914035;29;20647;-67
2020/12/14 04:18:39;;;;;;;7.13;6.40;;;2.80;99.90;;;;;;4913296;29;20202;-67
2020/12/14 04:21:05;;;;;;;8.70;7.27;;;2.80;99.90;;;;;;4914101;29;20175;-67
2020/12/14 04:23:31;;;;;;;8.53;6.67;;;2.80;99.90;;;;;;4913372;29;20178;-67
2020/12/14 04:25:57;;;;;;;7.70;6.30;;;2.80;99.90;;;;;;4914133;29;20213;-67
2020/12/14 04:28:22;;;;;;;6.37;5.77;;;2.80;99.90;;;;;;4913356;29;20325;-67
2020/12/14 04:30:48;;;;;;;9.70;6.07;;;2.80;99.90;;;;;;4914135;29;20277;-66
2020/12/14 04:33:14;;;;;;;7.27;6.30;;;2.70;99.90;;;;;;4913455;29;20190;-67
2020/12/14 04:35:40;;;;;;;7.73;6.90;;;2.70;99.90;;;;;;4913504;29;21208;-67
2020/12/14 04:38:05;;;;;;;8.83;7.33;;;2.70;99.90;;;;;;4913396;29;20206;-67
2020/12/14 04:40:31;;;;;;;6.53;5.87;;;2.70;99.90;;;;;;4913612;29;20246;-67
2020/12/14 04:43:00;;;;;;;9.27;7.10;;;2.70;99.90;;;;;;4913490;29;20198;-67
2020/12/14 04:45:26;;;;;;;8.43;6.77;;;2.70;99.90;;;;;;4913530;29;20190;-66
2020/12/14 04:47:57;;;;;;;12.23;8.50;;;2.70;99.90;;;;;;4913507;29;20446;-67
2020/12/14 04:50:24;;;;;;;8.00;6.60;;;2.80;99.90;;;;;;4913858;29;20974;-67
2020/12/14 04:52:50;;;;;;;8.07;6.37;;;2.80;99.90;;;;;;4913234;29;20446;-67
2020/12/14 04:55:21;;;;;;;10.67;7.80;;;2.80;99.90;;;;;;4912779;29;21118;-66
2020/12/14 04:57:47;;;;;;;8.17;7.37;;;2.80;99.90;;;;;;4913365;29;20560;-67
2020/12/14 05:00:14;;;;;;;9.90;7.57;;;2.80;99.90;;;;;;4913256;29;20442;-67
2020/12/14 05:02:39;;;;;;;10.27;8.10;;;2.80;99.90;;;;;;4913236;29;20964;-67
2020/12/14 05:05:09;;;;;;;9.07;7.30;;;2.80;99.90;;;;;;4913335;29;20438;-67
2020/12/14 05:07:44;;;;;;;10.90;6.90;;;2.80;99.90;;;;;;4914909;29;20249;-67
2020/12/14 05:10:10;;;;;;;12.90;6.90;;;2.80;99.90;;;;;;4917207;29;20442;-67
2020/12/14 05:12:44;;;;;;;10.87;7.67;;;2.80;99.90;;;;;;4916607;29;20448;-67
2020/12/14 05:15:24;;;;;;;12.47;8.83;;;2.70;99.90;;;;;;4916040;29;20450;-66
2020/12/14 05:17:52;;;;;;;9.00;7.63;;;2.70;99.90;;;;;;4909997;29;20482;-67
2020/12/14 05:20:20;;;;;;;9.70;6.90;;;2.70;99.90;;;;;;4905841;29;20814;-67
2020/12/14 05:22:56;;;;;;;9.13;7.77;;;2.80;99.90;;;;;;4916354;29;20430;-67
2020/12/14 05:25:23;;;;;;;9.50;8.60;;;2.80;99.90;;;;;;4916703;29;20517;-67
2020/12/14 05:28:00;;;;;;;11.73;7.33;;;2.80;99.90;;;;;;4916391;29;20438;-67
2020/12/14 05:30:32;;;;;;;13.30;8.97;;;2.80;99.90;;;;;;4912921;29;20447;-67
2020/12/14 05:33:01;;;;;;;10.47;7.57;;;2.80;99.90;;;;;;4916833;29;20439;-67
2020/12/14 05:35:53;;;;;;;10.50;7.23;;;2.80;99.90;;;;;;4916537;29;20799;-66
2020/12/14 05:38:18;;;;;;;10.50;8.07;;;2.80;99.90;;;;;;4915838;29;20734;-67
2020/12/14 05:40:49;;;;;;;9.93;7.70;;;2.80;99.90;;;;;;4916697;29;20897;-67
2020/12/14 05:43:18;;;;;;;10.20;8.23;;;2.80;99.90;;;;;;4916631;29;20185;-66
2020/12/14 05:45:44;;;;;;;10.53;8.77;;;2.70;99.90;;;;;;4916120;29;20514;-67
2020/12/14 05:48:32;;;;;;;10.57;8.60;;;2.70;99.90;;;;;;4915590;29;20955;-67
2020/12/14 05:51:02;;;;;;;9.90;8.87;;;2.70;99.90;;;;;;4915909;29;20493;-67
2020/12/14 05:53:41;;;;;;;13.40;9.97;;;2.70;99.90;;;;;;4916540;29;20470;-67
2020/12/14 05:56:09;;;;;;;10.50;7.83;;;2.60;99.90;;;;;;4915956;29;20468;-67
2020/12/14 05:58:36;;;;;;;10.90;9.73;;;2.60;99.90;;;;;;4915657;29;20466;-67
2020/12/14 06:01:07;;;;;;;13.83;9.30;;;2.50;99.90;;;;;;4916256;29;20801;-67
2020/12/14 06:03:33;;;;;;;12.00;8.83;;;2.50;99.90;;;;;;4916291;29;20438;-66
2020/12/14 06:06:08;;;;;;;12.63;10.67;;;2.50;99.90;;;;;;4915793;29;20484;-67
2020/12/14 06:08:49;;;;;;;11.60;9.30;;;2.50;99.90;;;;;;4915769;29;20508;-66
2020/12/14 06:11:26;;;;;;;15.20;10.70;;;2.50;99.90;;;;;;4916131;29;20452;-66
2020/12/14 06:13:59;;;;;;;23.17;13.93;;;2.50;99.90;;;;;;4915829;29;20525;-67
2020/12/14 06:16:32;;;;;;;14.00;10.37;;;2.50;99.90;;;;;;4914601;29;20485;-67
2020/12/14 06:18:58;;;;;;;13.63;10.77;;;2.50;99.90;;;;;;4914707;29;21055;-67
2020/12/14 06:21:31;;;;;;;12.90;10.20;;;2.50;99.90;;;;;;4915704;29;20443;-67
2020/12/14 06:23:59;;;;;;;12.40;9.50;;;2.50;99.90;;;;;;4914183;29;20493;-67
2020/12/14 06:26:25;;;;;;;13.73;10.10;;;2.50;99.90;;;;;;4915870;29;20521;-67
2020/12/14 06:28:53;;;;;;;14.00;9.40;;;2.50;99.90;;;;;;4915439;29;20509;-67
2020/12/14 06:31:32;;;;;;;11.07;8.63;;;2.50;99.90;;;;;;4915749;29;20453;-67
2020/12/14 06:34:02;;;;;;;11.70;9.60;;;2.60;99.90;;;;;;4915183;29;20537;-67
2020/12/14 06:36:37;;;;;;;11.60;8.90;;;2.60;99.90;;;;;;4915319;29;20503;-67
2020/12/14 06:39:03;;;;;;;13.67;9.90;;;2.60;99.90;;;;;;4914619;29;21071;-67
2020/12/14 06:41:30;;;;;;;12.60;8.70;;;2.60;99.90;;;;;;4914820;29;20430;-67
2020/12/14 06:44:15;;;;;;;14.60;11.30;;;2.60;99.90;;;;;;4914706;29;20426;-67
2020/12/14 06:46:40;;;;;;;12.80;9.90;;;2.60;99.90;;;;;;4914922;29;20989;-68
2020/12/14 06:49:09;;;;;;;14.17;11.63;;;2.60;99.90;;;;;;4914888;29;20430;-66
2020/12/14 06:51:54;;;;;;;14.07;9.87;;;2.60;99.90;;;;;;4914973;29;20174;-64
2020/12/14 06:54:39;;;;;;;13.53;9.47;;;2.60;99.90;;;;;;4915558;29;20782;-64
2020/12/14 06:57:05;;;;;;;17.23;11.30;;;2.60;99.90;;;;;;4912567;29;20473;-64
2020/12/14 06:59:31;;;;;;;14.40;9.77;;;2.70;99.90;;;;;;4914060;29;20445;-64
2020/12/14 07:02:00;;;;;;;16.87;12.43;;;2.70;99.90;;;;;;4914955;29;20430;-64
2020/12/14 07:04:29;;;;;;;16.00;11.40;;;2.70;99.90;;;;;;4914643;29;20183;-65
2020/12/14 07:06:55;;;;;;;16.90;10.47;;;2.70;99.90;;;;;;4914666;29;20513;-64
2020/12/14 07:09:28;;;;;;;13.87;10.87;;;2.70;99.90;;;;;;4914640;29;20972;-64
2020/12/14 07:12:17;;;;;;;18.20;11.73;;;2.70;99.90;;;;;;4914140;29;20437;-64
2020/12/14 07:14:50;;;;;;;15.90;11.00;;;2.80;99.90;;;;;;4924448;28;20446;-64
2020/12/14 07:17:25;;;;;;;14.83;11.00;;;2.90;99.90;;;;;;4914627;29;20466;-65
2020/12/14 07:19:56;;;;;;;19.10;11.00;;;2.90;99.90;;;;;;4914057;29;20521;-65
2020/12/14 07:22:23;;;;;;;16.20;11.13;;;2.90;99.90;;;;;;4914885;29;20498;-65
2020/12/14 07:25:03;;;;;;;15.17;10.03;;;2.90;99.90;;;;;;4911297;29;20445;-65
2020/12/14 07:27:31;;;;;;;17.47;12.60;;;2.90;99.90;;;;;;4911694;29;20821;-65
2020/12/14 07:30:07;;;;;;;16.40;11.67;;;2.90;99.90;;;;;;4913035;29;20529;-65
2020/12/14 07:32:33;;;;;;;14.30;10.47;;;2.90;99.90;;;;;;4914435;29;20449;-65
2020/12/14 07:34:58;;;;;;;14.10;11.60;;;3.00;99.90;;;;;;4898766;29;21037;-64
2020/12/14 07:37:24;;;;;;;18.37;12.77;;;3.00;99.90;;;;;;4885381;29;20332;-65
2020/12/14 07:39:51;;;;;;;15.17;10.60;;;3.00;99.90;;;;;;4897138;29;20277;-65
2020/12/14 07:42:26;;;;;;;16.10;12.47;;;3.10;99.90;;;;;;4913801;29;20426;-65
2020/12/14 07:45:13;;;;;;;17.07;13.00;;;3.20;99.90;;;;;;4912856;29;20453;-64
2020/12/14 07:47:41;;;;;;;14.93;11.70;;;3.50;99.90;;;;;;4914038;29;20509;-65
2020/12/14 07:50:12;;;;;;;17.23;11.00;;;3.90;99.90;;;;;;4913704;29;20422;-65
2020/12/14 07:52:39;;;;;;;11.63;10.20;;;4.70;99.90;;;;;;4900631;29;20438;-65
2020/12/14 07:55:07;;;;;;;15.00;12.43;;;5.50;99.90;;;;;;4913744;29;20434;-65
2020/12/14 07:57:38;;;;;;;11.80;10.50;;;6.00;99.90;;;;;;4913825;29;20525;-65
2020/12/14 08:00:09;;;;;;;11.03;8.93;;;6.60;99.90;;;;;;4913623;29;20474;-65
2020/12/14 08:02:35;;;;;;;12.80;9.80;;;7.20;99.90;;;;;;4913595;29;20473;-65
2020/12/14 08:05:06;;;;;;;11.13;9.77;;;7.80;99.90;;;;;;4913749;29;20426;-66
2020/12/14 08:07:43;;;;;;;10.77;9.67;;;8.50;99.90;;;;;;4913360;29;20544;-65
2020/12/14 08:10:09;;;;;;;9.97;9.00;;;9.50;99.90;;;;;;4914297;29;20477;-65
2020/12/14 08:12:43;;;;;;;11.27;10.10;;;9.80;99.90;;;;;;4914192;29;20465;-65
2020/12/14 08:15:19;;;;;;;9.67;8.67;;;10.70;99.90;;;;;;4913738;29;20465;-65
2020/12/14 08:17:48;;;;;;;12.40;10.30;;;11.70;99.90;;;;;;4913183;29;20466;-65
2020/12/14 08:20:33;;;;;;;9.43;8.53;;;12.20;99.90;;;;;;4914017;29;20462;-65
2020/12/14 08:23:02;;;;;;;9.80;8.90;;;12.70;99.90;;;;;;4907395;29;20473;-65
2020/12/14 08:25:32;;;;;;;9.70;8.70;;;12.40;99.90;;;;;;4913413;29;20442;-65
2020/12/14 08:28:03;;;;;;;11.23;10.07;;;12.30;99.90;;;;;;4912761;29;20429;-65
2020/12/14 08:30:31;;;;;;;10.63;9.63;;;11.50;99.90;;;;;;4913613;29;20943;-65
2020/12/14 08:33:19;;;;;;;10.60;9.60;;;11.80;99.90;;;;;;4912711;29;20439;-65
2020/12/14 08:35:46;;;;;;;10.70;9.50;;;11.60;99.90;;;;;;4911994;29;20865;-65
2020/12/14 08:38:14;;;;;;;10.20;9.20;;;11.00;99.90;;;;;;4914000;29;20474;-65
2020/12/14 08:41:01;;;;;;;10.73;9.70;;;10.90;99.90;;;;;;4899730;29;20816;-64
2020/12/14 08:43:28;;;;;;;9.87;8.87;;;10.70;99.90;;;;;;4907908;29;20836;-65
2020/12/14 08:46:15;;;;;;;10.07;9.00;;;10.60;99.90;;;;;;4917517;29;20456;-65
2020/12/14 08:48:51;;;;;;;11.70;9.63;;;10.90;99.90;;;;;;4917434;29;20437;-64
2020/12/14 08:51:37;;;;;;;9.60;8.70;;;10.60;99.90;;;;;;4917297;29;20437;-64
2020/12/14 08:54:11;;;;;;;10.63;9.53;;;10.50;99.90;;;;;;4917012;29;20446;-64
2020/12/14 08:56:37;;;;;;;10.70;9.30;;;10.50;99.90;;;;;;4917411;29;20545;-64
2020/12/14 08:59:03;;;;;;;10.30;9.23;;;10.90;99.90;;;;;;4916297;29;20548;-64
2020/12/14 09:01:30;;;;;;;11.00;9.23;;;11.00;99.90;;;;;;4914727;29;20199;-64
2020/12/14 09:04:01;;;;;;;13.00;9.37;;;10.80;99.90;;;;;;4917063;29;20426;-64
2020/12/14 09:06:35;;;;;;;15.77;9.90;;;11.30;99.90;;;;;;4915479;29;20476;-65
2020/12/14 09:09:06;;;;;;;10.93;8.53;;;12.00;99.90;;;;;;4916242;29;20512;-65
2020/12/14 09:11:47;;;;;;;10.10;8.93;;;13.10;99.90;;;;;;4916810;29;20641;-65
2020/12/14 09:14:21;;;;;;;9.43;8.63;;;13.70;99.90;;;;;;4917179;29;20947;-64
2020/12/14 09:16:49;;;;;;;10.37;9.40;;;13.40;99.90;;;;;;4916639;29;20469;-66
2020/12/14 09:19:19;;;;;;;11.23;10.07;;;13.40;99.90;;;;;;4916052;29;20434;-66
2020/12/14 09:21:45;;;;;;;9.73;8.80;;;14.20;99.90;;;;;;4916991;29;20525;-65
2020/12/14 09:24:13;;;;;;;11.50;10.43;;;14.30;99.90;;;;;;4916118;29;20524;-65
2020/12/14 09:26:40;;;;;;;10.63;9.53;;;14.50;99.90;;;;;;4916066;29;20696;-65
2020/12/14 09:29:07;;;;;;;9.00;8.20;;;15.30;99.20;;;;;;4916307;29;20435;-65
2020/12/14 09:31:32;;;;;;;10.37;9.43;;;16.60;97.10;;;;;;4916687;29;20450;-65
2020/12/14 09:33:58;;;;;;;9.00;8.30;;;16.90;94.20;;;;;;4916491;29;20450;-65
2020/12/14 09:36:23;;;;;;;9.47;8.63;;;17.10;92.40;;;;;;4916314;29;20226;-65
2020/12/14 09:38:49;;;;;;;9.87;9.03;;;15.20;94.20;;;;;;4915964;29;20293;-66
2020/12/14 09:41:15;;;;;;;10.40;9.40;;;14.30;97.30;;;;;;4916598;29;20182;-65
2020/12/14 09:43:43;;;;;;;10.07;9.17;;;15.00;97.30;;;;;;4916578;29;20248;-65
2020/12/14 09:46:09;;;;;;;9.80;8.90;;;15.00;96.00;;;;;;4915714;29;20202;-65
2020/12/14 09:48:35;;;;;;;11.73;10.63;;;15.10;96.70;;;;;;4915795;29;20442;-66
2020/12/14 09:51:03;;;;;;;9.90;9.10;;;15.80;95.50;;;;;;4916434;29;20805;-65
2020/12/14 09:53:28;;;;;;;9.90;9.00;;;15.60;95.00;;;;;;4915155;29;20190;-65
2020/12/14 09:55:54;;;;;;;10.63;9.63;;;15.10;95.60;;;;;;4915440;29;20477;-67
2020/12/14 09:58:19;;;;;;;12.17;10.93;;;13.70;97.00;;;;;;4915833;29;20205;-65
2020/12/14 10:00:45;;;;;;;10.00;9.20;;;12.90;99.80;;;;;;4915864;29;20557;-65
2020/12/14 10:03:10;;;;;;;9.37;8.57;;;13.10;99.90;;;;;;4915970;29;20195;-65
2020/12/14 10:05:36;;;;;;;9.50;8.60;;;12.90;99.90;;;;;;4915715;29;20265;-65
2020/12/14 10:08:01;;;;;;;10.83;9.73;;;12.10;99.90;;;;;;4915837;29;20216;-65
2020/12/14 10:10:27;;;;;;;10.03;9.03;;;11.20;99.90;;;;;;4915960;29;20847;-65
2020/12/14 10:12:58;;;;;;;11.50;9.70;;;10.40;99.90;;;;;;4916043;29;20198;-65
2020/12/14 10:15:24;;;;;;;10.80;9.80;;;9.90;99.90;;;;;;4929931;29;20185;-65
2020/12/14 10:17:50;;;;;;;10.70;8.97;;;9.50;99.90;;;;;;4921777;29;20480;-65
2020/12/14 10:20:16;;;;;;;10.47;9.47;;;9.10;99.90;;;;;;4915963;29;20190;-65
2020/12/14 10:22:41;;;;;;;11.27;10.07;;;8.80;99.90;;;;;;4916149;29;20675;-65
2020/12/14 10:25:07;;;;;;;9.57;8.53;;;8.50;99.90;;;;;;4915285;29;20652;-65
2020/12/14 10:27:32;;;;;;;9.47;8.50;;;8.40;99.90;;;;;;4915343;29;20216;-65
2020/12/14 10:29:58;;;;;;;11.20;9.23;;;8.30;99.90;;;;;;4915603;29;20178;-65
2020/12/14 10:32:23;;;;;;;12.67;11.17;;;8.30;99.90;;;;;;4914744;29;20228;-65
2020/12/14 10:34:49;;;;;;;10.30;9.27;;;8.50;99.90;;;;;;4914009;29;20657;-65
2020/12/14 10:37:15;;;;;;;10.83;8.83;;;8.40;99.90;;;;;;4914507;29;20305;-65
2020/12/14 10:39:40;;;;;;;9.97;8.93;;;8.30;99.90;;;;;;4914335;29;20548;-65
2020/12/14 10:42:06;;;;;;;12.30;9.70;;;8.40;99.90;;;;;;4915637;29;20181;-66
2020/12/14 10:44:31;;;;;;;10.00;8.17;;;8.30;99.90;;;;;;4915033;29;20191;-65
2020/12/14 10:47:06;;;;;;;9.17;8.27;;;8.40;99.90;;;;;;4914956;29;20201;-65
2020/12/14 10:49:32;;;;;;;10.73;9.10;;;8.40;99.90;;;;;;4914689;29;20229;-65
2020/12/14 10:51:58;;;;;;;8.83;7.13;;;8.60;99.90;;;;;;4913966;29;20952;-65
2020/12/14 10:54:23;;;;;;;10.37;8.47;;;8.70;99.90;;;;;;4914647;29;20438;-64
2020/12/14 10:56:49;;;;;;;9.83;8.83;;;8.50;99.90;;;;;;4914359;29;20807;-65
2020/12/14 10:59:14;;;;;;;8.53;7.60;;;8.50;99.90;;;;;;4914554;29;20174;-65
2020/12/14 11:01:40;;;;;;;9.13;8.10;;;8.40;99.90;;;;;;4914765;29;20257;-65
2020/12/14 11:04:05;;;;;;;8.33;7.30;;;8.40;99.90;;;;;;4914326;29;20656;-64
2020/12/14 11:06:32;;;;;;;8.70;7.90;;;8.30;99.90;;;;;;4914203;29;20202;-65
2020/12/14 11:08:58;;;;;;;12.13;9.97;;;8.50;99.90;;;;;;4913517;29;20712;-65
2020/12/14 11:11:24;;;;;;;9.17;8.00;;;8.50;99.90;;;;;;4910909;29;20442;-65
2020/12/14 11:13:50;;;;;;;8.17;7.37;;;8.80;99.90;;;;;;4907948;29;20434;-66
2020/12/14 11:16:16;;;;;;;8.00;6.80;;;9.10;99.90;;;;;;4915104;29;20225;-65
2020/12/14 11:18:42;;;;;;;9.60;7.73;;;9.30;99.90;;;;;;4914379;29;20232;-65
2020/12/14 11:21:07;;;;;;;8.03;7.23;;;9.30;99.90;;;;;;4914626;29;21047;-64
2020/12/14 11:23:33;;;;;;;9.27;7.80;;;9.30;99.90;;;;;;4914492;29;20453;-65
2020/12/14 11:25:59;;;;;;;7.83;7.10;;;9.20;99.90;;;;;;4913921;29;20190;-64
2020/12/14 11:28:27;;;;;;;7.63;6.93;;;9.10;99.90;;;;;;4914359;29;20186;-64
2020/12/14 11:30:52;;;;;;;7.30;6.50;;;8.90;99.90;;;;;;4913700;29;20186;-63
2020/12/14 11:33:18;;;;;;;10.93;7.10;;;9.00;99.90;;;;;;4913678;29;20450;-63
2020/12/14 11:35:43;;;;;;;7.87;6.70;;;9.00;99.90;;;;;;4914352;29;20210;-64
2020/12/14 11:38:09;;;;;;;8.43;7.60;;;9.00;99.90;;;;;;4914213;29;20218;-64
2020/12/14 11:40:34;;;;;;;6.90;6.20;;;9.20;99.90;;;;;;4914325;29;20182;-64
2020/12/14 11:43:00;;;;;;;7.37;6.67;;;9.30;99.90;;;;;;4914255;29;20189;-64
2020/12/14 11:45:27;;;;;;;6.60;5.90;;;9.40;99.90;;;;;;4908009;29;20177;-64
2020/12/14 11:47:54;;;;;;;11.30;6.60;;;9.50;99.90;;;;;;4904961;29;20269;-64
2020/12/14 11:50:20;;;;;;;7.57;6.77;;;9.60;99.90;;;;;;4910562;29;20450;-64
2020/12/14 11:52:46;;;;;;;6.90;6.03;;;9.40;99.90;;;;;;4911086;29;20484;-64
2020/12/14 11:55:13;;;;;;;6.67;6.07;;;9.50;99.90;;;;;;4913495;29;20434;-64
2020/12/14 11:57:39;;;;;;;6.43;5.77;;;9.50;99.90;;;;;;4913468;29;20466;-64
2020/12/14 12:00:07;;;;;;;6.43;5.83;;;9.40;99.90;;;;;;4913024;29;20438;-64
2020/12/14 12:02:32;;;;;;;6.50;5.90;;;9.40;99.90;;;;;;4908662;29;20427;-64
2020/12/14 12:04:58;;;;;;;6.30;5.77;;;9.60;99.90;;;;;;4903677;29;20444;-64
2020/12/14 12:07:23;;;;;;;6.23;5.63;;;9.80;99.90;;;;;;4913712;29;20202;-64
2020/12/14 12:09:49;;;;;;;6.10;5.30;;;9.90;99.90;;;;;;4913609;29;20209;-64
2020/12/14 12:12:14;;;;;;;5.93;5.33;;;9.90;99.90;;;;;;4914041;29;20205;-64
2020/12/14 12:14:40;;;;;;;6.53;5.70;;;10.10;99.90;;;;;;4913642;29;20535;-64
2020/12/14 12:17:06;;;;;;;5.53;5.03;;;10.30;99.90;;;;;;4913439;29;20222;-65
2020/12/14 12:19:31;;;;;;;5.40;4.90;;;10.60;99.90;;;;;;4919342;29;20190;-64
2020/12/14 12:22:00;;;;;;;5.50;5.00;;;10.80;99.90;;;;;;4918087;29;20178;-64
2020/12/14 12:24:26;;;;;;;5.70;5.20;;;11.00;99.90;;;;;;4917397;29;20234;-65
2020/12/14 12:26:52;;;;;;;5.50;5.00;;;11.40;99.90;;;;;;4915340;29;21103;-64
2020/12/14 12:29:18;;;;;;;6.60;5.97;;;11.70;99.90;;;;;;4917555;29;20513;-64
2020/12/14 12:31:55;;;;;;;7.00;5.60;;;11.70;99.90;;;;;;4914274;29;20206;-64
2020/12/14 12:34:20;;;;;;;6.70;5.30;;;11.80;99.90;;;;;;4917606;29;20438;-64
2020/12/14 12:36:57;;;;;;;5.90;4.80;;;12.30;99.90;;;;;;4916383;29;20834;-64
2020/12/14 12:39:23;;;;;;;5.10;4.60;;;12.30;99.90;;;;;;4917291;29;20727;-64
2020/12/14 12:41:51;;;;;;;5.20;4.70;;;11.90;99.90;;;;;;4917115;29;20477;-65
2020/12/14 12:44:17;;;;;;;5.40;4.80;;;11.50;99.90;;;;;;4917679;29;20174;-66
2020/12/14 12:46:43;;;;;;;6.03;4.13;;;11.40;99.90;;;;;;4917882;29;20494;-65
2020/12/14 12:49:10;;;;;;;5.47;4.50;;;11.00;99.90;;;;;;4917525;29;20802;-66
2020/12/14 12:51:35;;;;;;;4.57;4.17;;;11.00;99.90;;;;;;4917707;29;20437;-65
2020/12/14 12:54:02;;;;;;;7.47;4.40;;;11.10;99.90;;;;;;4917713;29;20940;-65